Time;durP1;ratioP1;P1;durP2;ratioP2;P2;SDS_P1;SDS_P2;PMS_P1;PMS_P2;Temp;Humidity;BMP_temperature;BMP_pressure;BME280_temperature;BME280_humidity;BME280_pressure;Samples;Min_cycle;Max_cycle;Signal;HPM_P1;HPM_P2
2023/12/05 00:02:06;;;;;;;;;;;;;;;0.87;62.17;100105.47;4407820;32;33184;-81
2023/12/05 00:04:36;;;;;;;;;;;;;;;0.90;62.30;100106.34;4408734;32;33310;-81
2023/12/05 00:07:03;;;;;;;;;;;;;;;1.07;61.87;100110.66;4407836;32;32633;-82
2023/12/05 00:09:31;;;;;;;;;;;;;;;0.58;63.09;100108.91;4420340;32;33347;-81
2023/12/05 00:11:59;;;;;;;;;;;;;;;0.89;62.40;100111.53;4408412;32;33885;-82
2023/12/05 00:14:27;;;;;;;;;;;;;;;0.97;62.41;100112.41;4420329;32;35057;-82
2023/12/05 00:16:55;;;;;;;;;;;;;;;1.10;61.65;100092.47;4421284;32;34077;-82
2023/12/05 00:19:22;;;;;;;;;;;;;;;1.02;61.64;100102.84;4419291;32;33311;-81
2023/12/05 00:21:50;;;;;;;;;;;;;;;0.95;61.74;100108.91;4421407;32;35776;-82
2023/12/05 00:24:17;;;;;;;;;;;;;;;1.31;60.84;100108.03;4407925;32;33092;-81
2023/12/05 00:26:45;;;;;;;;;;;;;;;1.10;61.58;100111.53;4421285;32;33790;-81
2023/12/05 00:29:13;;;;;;;;;;;;;;;1.16;61.20;100095.06;4408123;32;33552;-81
2023/12/05 00:31:40;;;;;;;;;;;;;;;1.14;61.45;100095.06;4402893;32;33056;-82
2023/12/05 00:34:08;;;;;;;;;;;;;;;1.13;61.18;100093.31;4420061;32;34292;-81
2023/12/05 00:36:35;;;;;;;;;;;;;;;1.45;59.99;100101.06;4421214;32;34882;-79
2023/12/05 00:39:03;;;;;;;;;;;;;;;1.10;61.18;100093.31;4420905;32;32992;-79
2023/12/05 00:41:31;;;;;;;;;;;;;;;1.07;61.15;100098.53;4406126;32;33787;-81
2023/12/05 00:43:59;;;;;;;;;;;;;;;0.98;61.25;100093.31;4420889;32;33866;-81
2023/12/05 00:46:27;;;;;;;;;;;;;;;1.23;60.95;100079.41;4407259;32;33459;-80
2023/12/05 00:48:56;;;;;;;;;;;;;;;1.09;61.49;100083.78;4419370;32;33205;-80
2023/12/05 00:51:24;;;;;;;;;;;;;;;1.28;60.71;100102.81;4413912;32;33820;-80
2023/12/05 00:53:51;;;;;;;;;;;;;;;1.31;60.36;100101.97;4419767;32;35149;-81
2023/12/05 00:56:20;;;;;;;;;;;;;;;1.09;61.38;100101.97;4420000;32;33993;-81
2023/12/05 00:58:47;;;;;;;;;;;;;;;1.60;59.62;100104.50;4408087;32;32134;-80
2023/12/05 01:01:15;;;;;;;;;;;;;;;1.30;59.93;100097.66;4407355;32;34174;-81
2023/12/05 01:03:42;;;;;;;;;;;;;;;1.47;59.75;100103.66;4420820;32;36449;-80
2023/12/05 01:06:10;;;;;;;;;;;;;;;1.54;59.36;100090.66;4406709;32;32826;-81
2023/12/05 01:08:37;;;;;;;;;;;;;;;1.52;59.59;100101.94;4406394;32;32200;-80
2023/12/05 01:11:05;;;;;;;;;;;;;;;0.95;61.04;100095.91;4407782;32;33456;-81
2023/12/05 01:13:33;;;;;;;;;;;;;;;1.07;60.96;100093.31;4413665;32;33646;-81
2023/12/05 01:16:02;;;;;;;;;;;;;;;1.45;59.78;100090.66;4408339;32;34583;-82
2023/12/05 01:18:30;;;;;;;;;;;;;;;0.89;61.71;100103.72;4420372;32;33256;-83
2023/12/05 01:20:58;;;;;;;;;;;;;;;0.86;61.33;100094.19;4406695;32;33303;-81
2023/12/05 01:23:25;;;;;;;;;;;;;;;0.81;61.80;100079.44;4419891;32;33986;-81
2023/12/05 01:25:53;;;;;;;;;;;;;;;1.03;61.16;100076.84;4414090;32;33409;-81
2023/12/05 01:28:20;;;;;;;;;;;;;;;1.35;60.09;100062.94;4419768;32;33301;-81
2023/12/05 01:30:48;;;;;;;;;;;;;;;1.04;61.02;100046.50;4418944;32;33888;-80
2023/12/05 01:33:15;;;;;;;;;;;;;;;0.80;62.00;100037.00;4419894;32;35019;-80
2023/12/05 01:35:43;;;;;;;;;;;;;;;0.87;61.89;100035.28;4407298;32;34151;-80
2023/12/05 01:38:10;;;;;;;;;;;;;;;0.64;62.99;100020.53;4420372;32;33169;-80
2023/12/05 01:40:38;;;;;;;;;;;;;;;-0.13;65.53;100029.09;4418220;32;33861;-80
2023/12/05 01:43:05;;;;;;;;;;;;;;;0.59;63.38;100018.81;4400600;32;32858;-80
2023/12/05 01:45:34;;;;;;;;;;;;;;;0.11;64.37;100018.75;4407862;32;33260;-80
2023/12/05 01:48:01;;;;;;;;;;;;;;;0.22;64.64;100019.63;4406803;32;32372;-80
2023/12/05 01:50:29;;;;;;;;;;;;;;;0.12;65.14;100030.00;4407499;32;33365;-80
2023/12/05 01:52:57;;;;;;;;;;;;;;;0.27;64.59;100023.97;4406686;32;33538;-80
2023/12/05 01:55:26;;;;;;;;;;;;;;;0.37;64.54;100029.19;4418576;32;34212;-80
2023/12/05 01:57:53;;;;;;;;;;;;;;;0.34;65.16;100015.34;4421613;32;33291;-80
2023/12/05 02:00:21;;;;;;;;;;;;;;;0.91;63.13;100019.66;4420283;32;34208;-80
2023/12/05 02:02:49;;;;;;;;;;;;;;;0.25;65.29;100011.88;4406876;32;32953;-80
2023/12/05 02:05:16;;;;;;;;;;;;;;;0.25;65.64;100013.59;4406748;32;33925;-80
2023/12/05 02:07:44;;;;;;;;;;;;;;;0.42;65.29;100008.41;4407231;32;32850;-79
2023/12/05 02:10:11;;;;;;;;;;;;;;;0.49;65.47;100020.53;4419093;32;33814;-79
2023/12/05 02:12:39;;;;;;;;;;;;;;;0.85;64.70;99992.81;4419956;32;34260;-79
2023/12/05 02:15:07;;;;;;;;;;;;;;;0.61;65.00;99994.56;4418594;32;34226;-79
2023/12/05 02:17:54;;;;;;;;;;;;;;;0.97;63.51;99990.19;4407498;32;31939;-79
2023/12/05 02:20:47;;;;;;;;;;;;;;;0.86;64.13;99991.97;4419677;32;33735;-80
2023/12/05 02:23:35;;;;;;;;;;;;;;;0.61;65.52;99983.28;4414603;32;33477;-79
2023/12/05 02:26:12;;;;;;;;;;;;;;;0.77;64.94;99974.62;4406460;32;33842;-80
2023/12/05 02:28:40;;;;;;;;;;;;;;;0.64;65.04;99967.72;4417745;32;32025;-80
2023/12/05 02:31:07;;;;;;;;;;;;;;;0.69;64.68;99961.63;4419106;32;33676;-80
2023/12/05 02:33:35;;;;;;;;;;;;;;;0.67;64.35;99959.94;4419439;32;33749;-80
2023/12/05 02:36:08;;;;;;;;;;;;;;;1.01;63.63;99947.72;4419520;32;34472;-80
2023/12/05 02:38:59;;;;;;;;;;;;;;;1.11;63.14;99954.63;4416868;32;33302;-79
2023/12/05 02:41:28;;;;;;;;;;;;;;;0.71;64.18;99954.72;4412961;32;33910;-80
2023/12/05 02:43:57;;;;;;;;;;;;;;;0.62;64.42;99957.31;4408509;32;33748;-81
2023/12/05 02:46:25;;;;;;;;;;;;;;;0.82;64.07;99951.22;4408394;32;34146;-81
2023/12/05 02:48:52;;;;;;;;;;;;;;;1.11;63.18;99956.37;4408091;32;31774;-81
2023/12/05 02:51:20;;;;;;;;;;;;;;;0.98;63.96;99958.97;4408746;32;34231;-81
2023/12/05 02:53:48;;;;;;;;;;;;;;;1.16;63.46;99958.06;4409404;32;34095;-81
2023/12/05 02:56:17;;;;;;;;;;;;;;;0.91;63.89;99966.81;4408970;32;32778;-81
2023/12/05 02:58:44;;;;;;;;;;;;;;;0.80;64.21;99947.75;4415554;32;33733;-80
2023/12/05 03:01:11;;;;;;;;;;;;;;;0.96;63.52;99954.66;4421513;32;34757;-81
2023/12/05 03:03:39;;;;;;;;;;;;;;;0.86;63.76;99947.75;4420967;32;33759;-81
2023/12/05 03:06:06;;;;;;;;;;;;;;;0.80;64.36;99942.56;4421606;32;34160;-81
2023/12/05 03:08:34;;;;;;;;;;;;;;;0.93;63.75;99944.25;4421084;32;34023;-81
2023/12/05 03:11:02;;;;;;;;;;;;;;;0.92;63.78;99943.41;4421159;32;34061;-83
2023/12/05 03:13:39;;;;;;;;;;;;;;;0.94;63.92;99936.44;4408191;32;32562;-83
2023/12/05 03:16:07;;;;;;;;;;;;;;;1.09;63.37;99932.06;4402580;32;34372;-83
2023/12/05 03:18:35;;;;;;;;;;;;;;;1.50;61.94;99932.78;4416562;32;33528;-83
2023/12/05 03:21:04;;;;;;;;;;;;;;;1.05;63.40;99926.03;4420490;32;32633;-82
2023/12/05 03:23:31;;;;;;;;;;;;;;;0.67;64.40;99921.81;4414607;32;34909;-82
2023/12/05 03:25:59;;;;;;;;;;;;;;;0.99;63.19;99929.50;4408083;32;33549;-82
2023/12/05 03:28:26;;;;;;;;;;;;;;;1.15;63.71;99922.53;4408460;32;32171;-83
2023/12/05 03:30:54;;;;;;;;;;;;;;;0.96;63.89;99923.47;4408862;32;32896;-82
2023/12/05 03:33:21;;;;;;;;;;;;;;;0.58;65.20;99916.63;4408557;32;33541;-81
2023/12/05 03:35:48;;;;;;;;;;;;;;;0.91;64.41;99918.28;4420538;32;33944;-82
2023/12/05 03:38:16;;;;;;;;;;;;;;;0.72;64.75;99912.25;4421041;32;34095;-82
2023/12/05 03:40:43;;;;;;;;;;;;;;;0.77;64.54;99904.47;4407874;32;32560;-80
2023/12/05 03:43:11;;;;;;;;;;;;;;;0.67;64.75;99908.81;4421204;32;34311;-80
2023/12/05 03:45:38;;;;;;;;;;;;;;;0.70;64.25;99900.13;4408254;32;32844;-80
2023/12/05 03:48:06;;;;;;;;;;;;;;;0.70;64.94;99895.78;4421433;32;32954;-80
2023/12/05 03:50:33;;;;;;;;;;;;;;;0.48;65.37;99909.72;4420768;32;34771;-80
2023/12/05 03:53:01;;;;;;;;;;;;;;;0.39;65.94;99914.91;4396023;32;33218;-80
2023/12/05 03:55:28;;;;;;;;;;;;;;;0.58;65.37;99906.22;4420234;32;34061;-79
2023/12/05 03:57:56;;;;;;;;;;;;;;;0.94;64.23;99899.19;4421274;32;33958;-79
2023/12/05 04:00:24;;;;;;;;;;;;;;;0.88;63.91;99897.47;4407807;32;34344;-79
2023/12/05 04:02:51;;;;;;;;;;;;;;;1.16;63.79;99895.66;4408507;32;33877;-79
2023/12/05 04:05:19;;;;;;;;;;;;;;;1.28;62.68;99895.63;4420172;32;34322;-80
2023/12/05 04:07:46;;;;;;;;;;;;;;;0.50;65.45;99885.44;4421224;32;33463;-79
2023/12/05 04:10:14;;;;;;;;;;;;;;;1.03;63.87;99891.38;4420070;32;34190;-80
2023/12/05 04:12:41;;;;;;;;;;;;;;;0.92;64.50;99887.94;4421270;32;34290;-79
2023/12/05 04:15:08;;;;;;;;;;;;;;;0.83;64.25;99885.38;4420638;32;33692;-79
2023/12/05 04:17:36;;;;;;;;;;;;;;;0.99;63.98;99892.25;4407838;32;33602;-79
2023/12/05 04:20:06;;;;;;;;;;;;;;;0.98;64.22;99883.59;4407696;32;33791;-79
2023/12/05 04:22:33;;;;;;;;;;;;;;;0.91;64.69;99881.03;4407348;32;32744;-81
2023/12/05 04:25:01;;;;;;;;;;;;;;;0.98;64.16;99880.97;4421367;32;33760;-81
2023/12/05 04:27:28;;;;;;;;;;;;;;;1.13;63.99;99880.06;4406615;32;32347;-81
2023/12/05 04:29:55;;;;;;;;;;;;;;;0.64;65.06;99890.62;4421522;32;34772;-81
2023/12/05 04:32:24;;;;;;;;;;;;;;;0.97;64.86;99884.47;4421219;32;33864;-81
2023/12/05 04:34:51;;;;;;;;;;;;;;;0.88;64.76;99888.81;4407468;32;33027;-81
2023/12/05 04:37:18;;;;;;;;;;;;;;;1.05;63.82;99889.66;4407583;32;31967;-81
2023/12/05 04:39:46;;;;;;;;;;;;;;;1.06;63.54;99890.50;4420545;32;33713;-80
2023/12/05 04:42:13;;;;;;;;;;;;;;;1.28;63.36;99890.41;4421304;32;34830;-81
2023/12/05 04:44:41;;;;;;;;;;;;;;;1.21;63.29;99882.62;4407981;32;33161;-81
2023/12/05 04:47:09;;;;;;;;;;;;;;;1.10;64.04;99877.47;4407288;32;32055;-81
2023/12/05 04:49:36;;;;;;;;;;;;;;;1.00;63.93;99881.00;4408151;32;32677;-81
2023/12/05 04:52:03;;;;;;;;;;;;;;;0.90;64.70;99881.88;4406487;32;33083;-81
2023/12/05 04:54:31;;;;;;;;;;;;;;;1.20;63.53;99884.38;4420331;32;34452;-81
2023/12/05 04:56:58;;;;;;;;;;;;;;;1.07;64.02;99885.28;4407386;32;33173;-82
2023/12/05 04:59:26;;;;;;;;;;;;;;;1.09;64.10;99875.72;4408001;32;33477;-81
2023/12/05 05:01:54;;;;;;;;;;;;;;;1.23;63.28;99875.66;4420185;32;34275;-81
2023/12/05 05:04:21;;;;;;;;;;;;;;;0.94;64.75;99883.59;4407013;32;33794;-80
2023/12/05 05:06:49;;;;;;;;;;;;;;;0.86;64.70;99887.97;4420404;32;33098;-81
2023/12/05 05:09:16;;;;;;;;;;;;;;;1.50;63.06;99879.87;4406008;32;32897;-80
2023/12/05 05:11:44;;;;;;;;;;;;;;;0.83;64.70;99882.78;4419759;32;34226;-80
2023/12/05 05:14:11;;;;;;;;;;;;;;;1.08;64.57;99889.59;4419901;32;34040;-83
2023/12/05 05:16:39;;;;;;;;;;;;;;;1.44;63.35;99890.31;4420152;32;33732;-82
2023/12/05 05:19:06;;;;;;;;;;;;;;;1.29;63.68;99886.06;4407072;32;33665;-80
2023/12/05 05:21:34;;;;;;;;;;;;;;;1.47;63.06;99880.78;4408238;32;33337;-79
2023/12/05 05:24:01;;;;;;;;;;;;;;;1.09;64.12;99888.72;4408220;32;34035;-79
2023/12/05 05:26:29;;;;;;;;;;;;;;;1.35;63.17;99887.78;4419799;32;33481;-81
2023/12/05 05:28:56;;;;;;;;;;;;;;;1.45;62.97;99884.25;4420220;32;33646;-79
2023/12/05 05:31:24;;;;;;;;;;;;;;;1.66;62.10;99884.13;4419656;32;34783;-80
2023/12/05 05:33:51;;;;;;;;;;;;;;;1.67;62.21;99885.84;4420129;32;34734;-80
2023/12/05 05:36:19;;;;;;;;;;;;;;;1.68;62.15;99884.13;4405913;32;33789;-80
2023/12/05 05:38:47;;;;;;;;;;;;;;;1.47;62.79;99890.28;4418849;32;33371;-80
2023/12/05 05:41:14;;;;;;;;;;;;;;;1.81;62.06;99874.50;4419780;32;35030;-80
2023/12/05 05:43:41;;;;;;;;;;;;;;;1.74;62.42;99890.12;4420160;32;34635;-80
2023/12/05 05:46:09;;;;;;;;;;;;;;;1.63;62.28;99884.13;4419789;32;33059;-80
2023/12/05 05:48:37;;;;;;;;;;;;;;;1.61;62.42;99887.63;4420113;32;34853;-79
2023/12/05 05:51:05;;;;;;;;;;;;;;;1.73;62.24;99888.41;4419555;32;34222;-80
2023/12/05 05:53:32;;;;;;;;;;;;;;;1.76;62.09;99888.41;4406398;32;34159;-80
2023/12/05 05:56:00;;;;;;;;;;;;;;;1.69;62.48;99886.69;4419392;32;32837;-80
2023/12/05 05:58:27;;;;;;;;;;;;;;;1.51;63.12;99886.81;4407110;32;34125;-79
2023/12/05 06:00:55;;;;;;;;;;;;;;;1.77;62.25;99886.66;4407528;32;33995;-79
2023/12/05 06:03:26;;;;;;;;;;;;;;;1.90;61.80;99879.59;4407043;32;30977;-79
2023/12/05 06:05:54;;;;;;;;;;;;;;;1.54;62.65;99886.78;4406949;32;32119;-78
2023/12/05 06:08:21;;;;;;;;;;;;;;;1.96;61.75;99879.59;4419532;32;34156;-79
2023/12/05 06:10:49;;;;;;;;;;;;;;;1.78;62.28;99885.78;4420181;32;35054;-81
2023/12/05 06:13:16;;;;;;;;;;;;;;;1.58;62.84;99882.44;4401408;32;34795;-81
2023/12/05 06:15:44;;;;;;;;;;;;;;;1.75;62.15;99888.38;4407113;32;31939;-80
2023/12/05 06:18:15;;;;;;;;;;;;;;;1.54;62.69;99881.59;4422214;32;34095;-80
2023/12/05 06:20:43;;;;;;;;;;;;;;;1.76;62.32;99888.41;4420784;32;34284;-80
2023/12/05 06:23:10;;;;;;;;;;;;;;;1.54;63.03;99887.66;4421827;32;33534;-80
2023/12/05 06:25:39;;;;;;;;;;;;;;;1.54;63.07;99892.88;4406718;32;32376;-80
2023/12/05 06:28:06;;;;;;;;;;;;;;;1.79;61.78;99903.97;4416855;32;33964;-80
2023/12/05 06:30:35;;;;;;;;;;;;;;;1.71;62.64;99890.16;4409132;32;33285;-80
2023/12/05 06:33:03;;;;;;;;;;;;;;;2.03;61.77;99892.53;4423149;32;33845;-81
2023/12/05 06:35:31;;;;;;;;;;;;;;;2.16;61.44;99887.22;4412165;32;33580;-80
2023/12/05 06:37:58;;;;;;;;;;;;;;;1.98;61.89;99883.03;4408423;32;33475;-81
2023/12/05 06:40:26;;;;;;;;;;;;;;;1.77;62.90;99884.91;4406060;32;33701;-81
2023/12/05 06:42:53;;;;;;;;;;;;;;;1.86;62.24;99885.75;4408782;32;34286;-81
2023/12/05 06:45:20;;;;;;;;;;;;;;;1.75;62.53;99877.97;4421819;32;33429;-81
2023/12/05 06:47:48;;;;;;;;;;;;;;;1.93;61.80;99877.00;4421848;32;34171;-81
2023/12/05 06:50:15;;;;;;;;;;;;;;;1.85;62.31;99881.38;4408590;32;34253;-81
2023/12/05 06:52:42;;;;;;;;;;;;;;;1.50;63.39;99879.87;4421737;32;34707;-81
2023/12/05 06:55:10;;;;;;;;;;;;;;;1.43;63.96;99888.59;4408548;32;31889;-81
2023/12/05 06:57:37;;;;;;;;;;;;;;;1.42;64.10;99881.66;4409493;32;34121;-81
2023/12/05 07:00:05;;;;;;;;;;;;;;;1.71;63.11;99887.56;4407986;32;33709;-82
2023/12/05 07:02:33;;;;;;;;;;;;;;;1.71;62.93;99895.37;4403667;32;34876;-81
2023/12/05 07:05:04;;;;;;;;;;;;;;;1.41;63.87;99893.78;4420492;32;33841;-81
2023/12/05 07:07:32;;;;;;;;;;;;;;;1.71;63.21;99892.78;4402667;32;32697;-81
2023/12/05 07:10:00;;;;;;;;;;;;;;;1.39;64.40;99907.69;4420082;32;33826;-81
2023/12/05 07:12:28;;;;;;;;;;;;;;;1.76;63.30;99898.81;4422123;32;34220;-81
2023/12/05 07:14:56;;;;;;;;;;;;;;;1.73;63.20;99903.16;4419916;32;33446;-81
2023/12/05 07:17:23;;;;;;;;;;;;;;;1.93;62.77;99905.62;4407688;32;33372;-81
2023/12/05 07:19:50;;;;;;;;;;;;;;;1.53;64.68;99905.91;4420892;32;33988;-81
2023/12/05 07:22:18;;;;;;;;;;;;;;;1.78;63.56;99912.66;4406208;32;34125;-82
2023/12/05 07:24:45;;;;;;;;;;;;;;;2.07;62.12;99903.78;4420145;32;33151;-82
2023/12/05 07:27:13;;;;;;;;;;;;;;;2.09;62.34;99909.87;4407610;32;32663;-81
2023/12/05 07:29:40;;;;;;;;;;;;;;;2.07;62.02;99908.13;4420037;32;33557;-81
2023/12/05 07:32:07;;;;;;;;;;;;;;;2.50;60.88;99913.84;4407203;32;32673;-83
2023/12/05 07:34:35;;;;;;;;;;;;;;;2.28;61.67;99911.44;4421214;32;33681;-81
2023/12/05 07:37:03;;;;;;;;;;;;;;;2.19;61.66;99914.12;4381946;32;34090;-81
2023/12/05 07:39:31;;;;;;;;;;;;;;;2.27;61.87;99922.72;4419510;32;34267;-81
2023/12/05 07:41:59;;;;;;;;;;;;;;;2.53;60.67;99913.84;4419629;32;34719;-80
2023/12/05 07:44:27;;;;;;;;;;;;;;;2.27;60.88;99914.91;4406776;32;32429;-80
2023/12/05 07:46:54;;;;;;;;;;;;;;;2.06;62.43;99912.50;4405918;32;34397;-80
2023/12/05 07:49:21;;;;;;;;;;;;;;;2.17;61.81;99910.66;4406620;32;33233;-80
2023/12/05 07:51:49;;;;;;;;;;;;;;;2.18;62.23;99912.38;4404926;32;34649;-79
2023/12/05 07:54:17;;;;;;;;;;;;;;;2.31;61.65;99911.41;4420489;32;32891;-79
2023/12/05 07:56:44;;;;;;;;;;;;;;;1.58;63.71;99917.13;4392993;32;34095;-79
2023/12/05 07:59:12;;;;;;;;;;;;;;;1.73;63.67;99914.44;4419840;32;34744;-79
2023/12/05 08:01:42;;;;;;;;;;;;;;;1.74;63.54;99910.97;4418965;32;33975;-79
2023/12/05 08:04:10;;;;;;;;;;;;;;;2.07;63.26;99909.00;4412070;32;33155;-80
2023/12/05 08:06:37;;;;;;;;;;;;;;;2.12;62.78;99907.22;4408060;32;33722;-79
2023/12/05 08:09:06;;;;;;;;;;;;;;;1.96;63.01;99910.84;4410556;32;34215;-79
2023/12/05 08:11:35;;;;;;;;;;;;;;;1.99;62.68;99908.19;4420588;32;34110;-79
2023/12/05 08:14:03;;;;;;;;;;;;;;;1.53;64.48;99911.97;4419941;32;33335;-79
2023/12/05 08:16:30;;;;;;;;;;;;;;;1.12;65.94;99903.47;4420035;32;33798;-80
2023/12/05 08:18:58;;;;;;;;;;;;;;;1.43;65.20;99909.41;4419461;32;34279;-80
2023/12/05 08:21:25;;;;;;;;;;;;;;;1.78;64.06;99911.81;4410998;32;33376;-80
2023/12/05 08:23:52;;;;;;;;;;;;;;;1.78;63.80;99904.00;4420127;32;32908;-79
2023/12/05 08:26:21;;;;;;;;;;;;;;;1.96;63.50;99893.47;4406871;32;33126;-80
2023/12/05 08:28:49;;;;;;;;;;;;;;;1.74;63.87;99900.53;4419942;32;34274;-78
2023/12/05 08:31:16;;;;;;;;;;;;;;;1.67;64.16;99909.28;4420430;32;33674;-79
2023/12/05 08:33:44;;;;;;;;;;;;;;;2.10;62.09;99903.78;4392446;32;33431;-79
2023/12/05 08:36:11;;;;;;;;;;;;;;;1.87;63.77;99916.09;4420494;32;34668;-79
2023/12/05 08:38:38;;;;;;;;;;;;;;;1.99;63.29;99918.59;4407158;32;33571;-79
2023/12/05 08:41:07;;;;;;;;;;;;;;;1.83;63.89;99909.19;4408454;32;132500;-79
2023/12/05 08:43:34;;;;;;;;;;;;;;;2.05;63.38;99902.97;4420337;32;33335;-80
2023/12/05 08:46:02;;;;;;;;;;;;;;;1.95;63.44;99909.13;4420118;32;33962;-79
2023/12/05 08:48:31;;;;;;;;;;;;;;;2.35;62.46;99896.63;4406650;32;33173;-79
2023/12/05 08:50:58;;;;;;;;;;;;;;;2.56;61.30;99895.53;4420825;32;34265;-79
2023/12/05 08:53:28;;;;;;;;;;;;;;;1.83;63.31;99902.22;4417679;32;33927;-79
2023/12/05 08:55:56;;;;;;;;;;;;;;;2.02;63.58;99901.22;4419773;32;34214;-79
2023/12/05 08:58:24;;;;;;;;;;;;;;;2.01;63.34;99896.03;4420698;32;34353;-80
2023/12/05 09:00:51;;;;;;;;;;;;;;;2.00;63.87;99900.38;4395877;32;34271;-79
2023/12/05 09:03:19;;;;;;;;;;;;;;;1.73;64.05;99909.25;4406482;32;33545;-79
2023/12/05 09:05:48;;;;;;;;;;;;;;;1.75;64.39;99912.69;4406495;32;32881;-80
2023/12/05 09:08:16;;;;;;;;;;;;;;;1.98;63.35;99903.84;4420305;32;34524;-79
2023/12/05 09:10:43;;;;;;;;;;;;;;;1.78;64.84;99910.06;4419286;32;33261;-79
2023/12/05 09:13:11;;;;;;;;;;;;;;;2.01;63.62;99907.31;4420821;32;33289;-80
2023/12/05 09:15:39;;;;;;;;;;;;;;;2.18;63.59;99907.16;4406972;32;34281;-79
2023/12/05 09:18:06;;;;;;;;;;;;;;;2.69;61.52;99904.13;4406201;32;32933;-80
2023/12/05 09:20:34;;;;;;;;;;;;;;;1.92;63.73;99911.72;4406927;32;33895;-79
2023/12/05 09:23:02;;;;;;;;;;;;;;;2.63;61.61;99909.41;4408486;32;33740;-80
2023/12/05 09:25:29;;;;;;;;;;;;;;;2.46;62.04;99901.72;4405924;32;32943;-79
2023/12/05 09:27:57;;;;;;;;;;;;;;;2.09;63.16;99898.56;4406729;32;33174;-79
2023/12/05 09:30:25;;;;;;;;;;;;;;;2.39;62.33;99895.72;4420690;32;34186;-79
2023/12/05 09:32:53;;;;;;;;;;;;;;;2.43;62.64;99893.97;4418876;32;32909;-80
2023/12/05 09:35:22;;;;;;;;;;;;;;;1.99;63.23;99895.16;4419199;32;33044;-81
2023/12/05 09:37:49;;;;;;;;;;;;;;;2.02;64.00;99892.56;4420476;32;34086;-78
2023/12/05 09:40:17;;;;;;;;;;;;;;;2.36;62.30;99894.87;4388206;32;33257;-79
2023/12/05 09:42:46;;;;;;;;;;;;;;;2.17;63.44;99883.75;4419762;32;33030;-79
2023/12/05 09:45:14;;;;;;;;;;;;;;;2.34;62.45;99870.59;4417431;32;34121;-78
2023/12/05 09:47:43;;;;;;;;;;;;;;;2.51;61.53;99879.94;4407844;32;33881;-78
2023/12/05 09:50:11;;;;;;;;;;;;;;;2.08;62.88;99876.88;4396861;32;35033;-78
2023/12/05 09:52:38;;;;;;;;;;;;;;;2.10;63.67;99875.12;4420070;32;33201;-78
2023/12/05 09:55:06;;;;;;;;;;;;;;;2.19;63.34;99875.06;4412788;32;33692;-78
2023/12/05 09:57:34;;;;;;;;;;;;;;;2.45;62.26;99868.72;4408906;32;33882;-78
2023/12/05 10:00:02;;;;;;;;;;;;;;;2.67;61.92;99865.03;4395708;32;33470;-78
2023/12/05 10:02:37;;;;;;;;;;;;;;;2.54;62.42;99868.66;4409451;32;33436;-78
2023/12/05 10:05:05;;;;;;;;;;;;;;;2.60;62.01;99860.75;4408702;32;32638;-78
2023/12/05 10:07:33;;;;;;;;;;;;;;;3.06;60.69;99857.63;4420725;32;34021;-78
2023/12/05 10:10:01;;;;;;;;;;;;;;;3.21;60.94;99839.16;4420642;32;34033;-78
2023/12/05 10:12:29;;;;;;;;;;;;;;;2.93;61.71;99843.88;4408219;32;32743;-79
2023/12/05 10:14:56;;;;;;;;;;;;;;;3.10;60.88;99843.66;4421866;32;33979;-79
2023/12/05 10:17:25;;;;;;;;;;;;;;;3.16;59.96;99827.06;4408546;32;34298;-80
2023/12/05 10:19:53;;;;;;;;;;;;;;;2.91;60.99;99821.31;4423050;32;33952;-80
2023/12/05 10:22:21;;;;;;;;;;;;;;;3.07;60.91;99818.47;4421158;32;33052;-80
2023/12/05 10:24:49;;;;;;;;;;;;;;;2.76;62.69;99819.75;4420773;32;34890;-80
2023/12/05 10:27:17;;;;;;;;;;;;;;;2.69;61.89;99821.53;4420278;32;34206;-80
2023/12/05 10:29:44;;;;;;;;;;;;;;;2.52;62.44;99828.72;4397054;32;33554;-80
2023/12/05 10:32:12;;;;;;;;;;;;;;;2.62;61.89;99819.91;4407665;32;31887;-79
2023/12/05 10:34:48;;;;;;;;;;;;;;;3.03;60.67;99813.31;4407379;32;32459;-80
2023/12/05 10:37:22;;;;;;;;;;;;;;;3.01;60.38;99804.66;4415522;32;34560;-80
2023/12/05 10:39:50;;;;;;;;;;;;;;;2.96;61.30;99809.94;4407096;32;33933;-80
2023/12/05 10:42:18;;;;;;;;;;;;;;;2.91;61.54;99805.66;4421935;32;34128;-79
2023/12/05 10:44:46;;;;;;;;;;;;;;;3.31;60.16;99796.41;4408203;32;32480;-80
2023/12/05 10:47:14;;;;;;;;;;;;;;;3.18;61.00;99813.13;4407878;32;34093;-79
2023/12/05 10:49:44;;;;;;;;;;;;;;;3.14;61.14;99806.22;4420701;32;33934;-80
2023/12/05 10:52:11;;;;;;;;;;;;;;;3.38;60.18;99788.50;4408590;32;32190;-80
2023/12/05 10:54:41;;;;;;;;;;;;;;;3.33;60.43;99784.22;4408907;32;33848;-80
2023/12/05 10:57:11;;;;;;;;;;;;;;;3.53;59.79;99780.44;4407557;32;34339;-79
2023/12/05 10:59:40;;;;;;;;;;;;;;;2.86;62.11;99784.84;4420744;32;34062;-79
2023/12/05 11:02:12;;;;;;;;;;;;;;;3.16;60.90;99777.50;4421552;32;33530;-79
2023/12/05 11:04:43;;;;;;;;;;;;;;;3.11;60.61;99788.00;4421180;32;34824;-79
2023/12/05 11:07:10;;;;;;;;;;;;;;;2.91;61.64;99796.09;4421499;32;34368;-79
2023/12/05 11:09:41;;;;;;;;;;;;;;;3.07;61.91;99797.59;4421198;32;34936;-78
2023/12/05 11:12:09;;;;;;;;;;;;;;;3.11;61.01;99798.44;4421321;32;33324;-79
2023/12/05 11:14:37;;;;;;;;;;;;;;;2.98;61.30;99796.88;4421352;32;33709;-79
2023/12/05 11:17:05;;;;;;;;;;;;;;;2.67;62.26;99797.25;4401429;32;33982;-79
2023/12/05 11:19:50;;;;;;;;;;;;;;;2.80;61.71;99796.22;4419945;32;34658;-79
2023/12/05 11:22:26;;;;;;;;;;;;;;;2.94;61.79;99792.56;4421526;32;33410;-79
2023/12/05 11:24:59;;;;;;;;;;;;;;;3.19;61.11;99790.50;4421020;32;33782;-79
2023/12/05 11:27:27;;;;;;;;;;;;;;;3.48;60.25;99782.25;4399805;32;33466;-79
2023/12/05 11:29:58;;;;;;;;;;;;;;;3.60;59.52;99782.03;4423214;32;34140;-79
2023/12/05 11:32:41;;;;;;;;;;;;;;;3.28;60.53;99778.19;4418921;32;33206;-79
2023/12/05 11:35:16;;;;;;;;;;;;;;;3.33;60.13;99784.22;4420291;32;34055;-79
2023/12/05 11:38:02;;;;;;;;;;;;;;;3.00;61.25;99789.91;4408291;32;33949;-79
2023/12/05 11:40:30;;;;;;;;;;;;;;;3.08;61.52;99788.03;4420941;32;34407;-79
2023/12/05 11:43:08;;;;;;;;;;;;;;;3.43;60.18;99782.31;4410186;32;32255;-79
2023/12/05 11:45:37;;;;;;;;;;;;;;;3.56;60.23;99786.47;4395632;32;33318;-79
2023/12/05 11:48:04;;;;;;;;;;;;;;;3.72;60.08;99787.09;4422409;32;33889;-79
2023/12/05 11:50:40;;;;;;;;;;;;;;;4.09;58.89;99782.09;4411167;32;33527;-79
2023/12/05 11:53:09;;;;;;;;;;;;;;;4.07;58.40;99788.25;4407075;32;33287;-79
2023/12/05 11:55:36;;;;;;;;;;;;;;;3.70;58.94;99778.41;4406211;32;34014;-79
2023/12/05 11:58:04;;;;;;;;;;;;;;;3.71;59.31;99785.38;4407575;32;33311;-79
2023/12/05 12:00:32;;;;;;;;;;;;;;;4.01;58.85;99783.12;4420547;32;33365;-79
2023/12/05 12:03:01;;;;;;;;;;;;;;;3.56;59.47;99777.75;4420471;32;32414;-79
2023/12/05 12:05:29;;;;;;;;;;;;;;;3.44;60.21;99777.97;4404600;32;32514;-79
2023/12/05 12:07:56;;;;;;;;;;;;;;;3.57;59.46;99782.97;4420744;32;33493;-79
2023/12/05 12:10:26;;;;;;;;;;;;;;;3.36;60.46;99782.44;4407047;32;32590;-79
2023/12/05 12:12:53;;;;;;;;;;;;;;;3.19;60.87;99791.38;4408493;32;32279;-79
2023/12/05 12:15:21;;;;;;;;;;;;;;;3.04;61.52;99782.00;4419499;32;33764;-79
2023/12/05 12:17:49;;;;;;;;;;;;;;;3.28;60.84;99775.59;4420715;32;32636;-79
2023/12/05 12:20:17;;;;;;;;;;;;;;;3.28;60.75;99779.94;4420708;32;34414;-79
2023/12/05 12:22:48;;;;;;;;;;;;;;;3.83;59.24;99776.47;4399817;32;32543;-79
2023/12/05 12:25:17;;;;;;;;;;;;;;;3.57;59.68;99771.66;4421323;32;33769;-79
2023/12/05 12:27:45;;;;;;;;;;;;;;;3.11;61.27;99774.94;4420899;32;34326;-79
2023/12/05 12:30:17;;;;;;;;;;;;;;;3.21;60.83;99770.47;4408398;32;34188;-79
2023/12/05 12:32:57;;;;;;;;;;;;;;;3.25;60.72;99769.53;4407343;32;33423;-79
2023/12/05 12:35:25;;;;;;;;;;;;;;;3.26;60.89;99764.28;4415741;32;34020;-79
2023/12/05 12:37:53;;;;;;;;;;;;;;;3.45;60.21;99771.84;4420796;32;34500;-79
2023/12/05 12:40:22;;;;;;;;;;;;;;;3.33;60.87;99767.69;4419789;32;34812;-79
2023/12/05 12:42:51;;;;;;;;;;;;;;;3.15;61.39;99770.56;4394690;32;31803;-79
2023/12/05 12:45:20;;;;;;;;;;;;;;;3.01;61.96;99770.75;4419103;32;34867;-79
2023/12/05 12:47:48;;;;;;;;;;;;;;;3.56;60.20;99754.25;4415579;32;34147;-79
2023/12/05 12:50:16;;;;;;;;;;;;;;;3.64;60.30;99761.97;4407243;32;33195;-79
2023/12/05 12:52:43;;;;;;;;;;;;;;;3.93;59.42;99769.31;4421421;32;33289;-79
2023/12/05 12:55:15;;;;;;;;;;;;;;;3.96;59.10;99759.69;4420812;32;34509;-79
2023/12/05 12:57:43;;;;;;;;;;;;;;;4.01;59.16;99765.69;4414731;32;35068;-79
2023/12/05 13:00:14;;;;;;;;;;;;;;;3.75;59.92;99754.81;4408387;32;33181;-79
2023/12/05 13:03:00;;;;;;;;;;;;;;;3.79;59.59;99762.59;4416095;32;33336;-79